Time;durP1;ratioP1;P1;durP2;ratioP2;P2;SDS_P1;SDS_P2;PMS_P1;PMS_P2;Temp;Humidity;BMP_temperature;BMP_pressure;BME280_temperature;BME280_humidity;BME280_pressure;Samples;Min_cycle;Max_cycle;Signal;HPM_P1;HPM_P2
2022/12/31 00:01:01;;;;;;;73.20;33.13;;;1.40;99.90;;;;;;4423113;28;658023;-67
2022/12/31 00:03:48;;;;;;;72.07;31.03;;;1.40;99.90;;;;;;4442713;28;657508;-67
2022/12/31 00:06:36;;;;;;;63.47;27.07;;;1.40;99.90;;;;;;4424689;28;657884;-67
2022/12/31 00:09:23;;;;;;;56.93;25.30;;;1.40;99.90;;;;;;4443409;28;658239;-67
2022/12/31 00:12:12;;;;;;;64.88;27.25;;;1.50;99.90;;;;;;4421275;28;657892;-67
2022/12/31 00:14:59;;;;;;;70.37;29.00;;;1.70;99.90;;;;;;4447679;28;656781;-69
2022/12/31 00:17:46;;;;;;;69.00;31.03;;;1.80;99.90;;;;;;4425998;28;657907;-67
2022/12/31 00:20:33;;;;;;;61.97;26.33;;;1.80;99.90;;;;;;4444751;28;658566;-69
2022/12/31 00:23:21;;;;;;;55.50;26.83;;;1.80;99.90;;;;;;4422921;28;657645;-67
2022/12/31 00:26:09;;;;;;;58.33;26.27;;;1.90;99.90;;;;;;4440666;28;658300;-67
2022/12/31 00:28:58;;;;;;;59.50;27.50;;;2.00;99.90;;;;;;4417728;28;658440;-67
2022/12/31 00:31:46;;;;;;;62.47;27.07;;;2.00;99.90;;;;;;4426021;28;657244;-67
2022/12/31 00:34:33;;;;;;;59.60;27.10;;;1.90;99.90;;;;;;4449258;28;657649;-67
2022/12/31 00:37:20;;;;;;;56.83;27.15;;;1.90;99.90;;;;;;4426575;28;658235;-69
2022/12/31 00:40:09;;;;;;;58.93;27.73;;;1.90;99.90;;;;;;4440694;28;658774;-67
2022/12/31 00:42:56;;;;;;;48.07;23.93;;;1.90;99.90;;;;;;4419708;28;658733;-67
2022/12/31 00:45:45;;;;;;;49.27;22.50;;;2.00;99.90;;;;;;4433933;28;657740;-67
2022/12/31 00:48:32;;;;;;;48.53;22.03;;;2.10;99.90;;;;;;4421488;28;658361;-67
2022/12/31 00:51:21;;;;;;;44.53;22.60;;;2.30;99.90;;;;;;4438408;28;657884;-68
2022/12/31 00:54:08;;;;;;;47.97;24.03;;;2.40;99.90;;;;;;4444166;28;658363;-67
2022/12/31 00:56:56;;;;;;;46.13;20.93;;;2.50;99.90;;;;;;4420586;28;657755;-67
2022/12/31 00:59:43;;;;;;;48.17;20.53;;;2.50;99.90;;;;;;4443717;28;657681;-67
2022/12/31 01:02:32;;;;;;;43.63;20.57;;;2.60;99.90;;;;;;4424248;28;657406;-68
2022/12/31 01:05:19;;;;;;;42.53;19.83;;;2.60;99.90;;;;;;4444019;28;658039;-67
2022/12/31 01:08:06;;;;;;;47.07;21.67;;;2.70;99.90;;;;;;4422083;28;657983;-67
2022/12/31 01:13:59;;;;;;;42.20;18.67;;;2.70;99.90;;;;;;4414444;28;658225;-67
2022/12/31 01:16:47;;;;;;;41.83;18.53;;;2.60;99.90;;;;;;4413831;28;657363;-68
2022/12/31 01:19:36;;;;;;;43.63;20.90;;;2.80;99.90;;;;;;4438975;28;658311;-68
2022/12/31 01:22:23;;;;;;;37.43;17.90;;;2.80;99.90;;;;;;4414924;28;658546;-67
2022/12/31 01:25:10;;;;;;;41.13;19.10;;;2.70;99.90;;;;;;4421144;28;658114;-68
2022/12/31 01:27:57;;;;;;;37.90;18.10;;;2.70;99.90;;;;;;4444563;28;658872;-67
2022/12/31 01:30:45;;;;;;;40.63;18.60;;;2.70;99.90;;;;;;4426912;28;657412;-69
2022/12/31 01:33:32;;;;;;;35.97;17.43;;;2.60;99.90;;;;;;4445259;28;658119;-67
2022/12/31 01:36:22;;;;;;;37.40;17.47;;;2.70;99.90;;;;;;4440287;28;657909;-68
2022/12/31 01:39:11;;;;;;;35.63;16.13;;;2.70;99.90;;;;;;4435468;28;657951;-68
2022/12/31 01:41:58;;;;;;;31.23;15.13;;;2.70;99.90;;;;;;4441323;28;658431;-67
2022/12/31 01:44:49;;;;;;;34.05;15.40;;;2.80;99.90;;;;;;4420167;28;657885;-68
2022/12/31 01:47:38;;;;;;;29.27;14.77;;;2.80;99.90;;;;;;4424713;28;658070;-67
2022/12/31 01:50:27;;;;;;;30.02;15.15;;;2.80;99.90;;;;;;4433145;28;657565;-68
2022/12/31 01:53:16;;;;;;;33.60;15.33;;;2.90;99.90;;;;;;4447615;28;657938;-66
2022/12/31 01:56:03;;;;;;;33.80;15.07;;;3.00;99.90;;;;;;4426656;28;657704;-67
2022/12/31 01:58:51;;;;;;;32.80;14.73;;;3.00;99.90;;;;;;4426178;28;657191;-68
2022/12/31 02:01:39;;;;;;;30.60;14.73;;;3.00;99.90;;;;;;4447549;28;658163;-67
2022/12/31 02:04:26;;;;;;;32.53;15.63;;;3.00;99.90;;;;;;4427391;28;658001;-67
2022/12/31 02:07:13;;;;;;;35.13;17.17;;;2.90;99.90;;;;;;4449685;28;658259;-67
2022/12/31 02:10:02;;;;;;;35.27;16.33;;;2.90;99.90;;;;;;4425338;28;657553;-68
2022/12/31 02:12:49;;;;;;;31.50;14.75;;;3.00;99.90;;;;;;4440442;28;657639;-67
2022/12/31 02:15:41;;;;;;;29.83;14.43;;;3.00;99.90;;;;;;4428165;28;657776;-67
2022/12/31 02:18:31;;;;;;;29.97;15.03;;;3.10;99.90;;;;;;4424537;28;657665;-67
2022/12/31 02:21:45;;;;;;;30.40;15.17;;;3.10;99.90;;;;;;4424995;28;658442;-67
2022/12/31 02:24:58;;;;;;;36.90;16.33;;;3.20;99.90;;;;;;4400591;28;657935;-67
2022/12/31 02:27:52;;;;;;;30.90;14.73;;;3.30;99.90;;;;;;4411228;28;657681;-68
2022/12/31 02:30:40;;;;;;;31.70;16.00;;;3.40;99.90;;;;;;4416166;28;657701;-67
2022/12/31 02:33:30;;;;;;;29.03;15.23;;;3.50;99.90;;;;;;4425026;28;658272;-67
2022/12/31 02:36:18;;;;;;;27.47;13.90;;;3.50;99.90;;;;;;4424014;28;658611;-67
2022/12/31 02:39:06;;;;;;;28.53;14.83;;;3.50;99.90;;;;;;4424259;28;657755;-67
2022/12/31 02:41:53;;;;;;;29.90;15.33;;;3.60;99.90;;;;;;4439225;28;658737;-67
2022/12/31 02:44:41;;;;;;;37.43;16.73;;;3.60;99.90;;;;;;4418642;28;657859;-67
2022/12/31 02:47:38;;;;;;;40.27;19.37;;;3.70;99.90;;;;;;4445709;28;657572;-67
2022/12/31 02:50:33;;;;;;;39.40;19.53;;;3.90;99.90;;;;;;4404030;28;658614;-68
2022/12/31 02:53:25;;;;;;;39.33;19.57;;;4.00;99.90;;;;;;4408657;28;657931;-68
2022/12/31 02:56:14;;;;;;;44.53;21.80;;;4.00;99.90;;;;;;4423948;28;658340;-67
2022/12/31 03:02:17;;;;;;;48.07;21.37;;;4.10;99.90;;;;;;4402074;28;657624;-67
2022/12/31 03:05:07;;;;;;;44.73;20.97;;;4.10;99.90;;;;;;4415975;28;658244;-68
2022/12/31 03:07:55;;;;;;;33.93;17.10;;;4.00;99.90;;;;;;4446075;28;657931;-68
2022/12/31 03:10:42;;;;;;;48.13;23.23;;;3.80;99.90;;;;;;4444987;28;657442;-67
2022/12/31 03:13:29;;;;;;;46.27;23.30;;;3.80;99.90;;;;;;4445648;28;657910;-68
2022/12/31 03:16:16;;;;;;;47.70;23.37;;;3.90;99.90;;;;;;4448366;28;657760;-67
2022/12/31 03:22:30;;;;;;;44.73;22.63;;;3.90;99.90;;;;;;4332727;28;659373;-67
2022/12/31 03:25:32;;;;;;;37.33;17.37;;;3.80;99.90;;;;;;4329340;28;659193;-67
2022/12/31 03:28:21;;;;;;;48.07;22.50;;;3.60;99.90;;;;;;4380451;28;657867;-68
2022/12/31 03:31:08;;;;;;;46.60;22.60;;;3.50;99.90;;;;;;4430870;28;659331;-67
2022/12/31 03:33:55;;;;;;;43.07;21.10;;;3.60;99.90;;;;;;4401403;28;657973;-68
2022/12/31 03:36:43;;;;;;;53.53;25.80;;;3.70;99.90;;;;;;4420888;28;659284;-67
2022/12/31 03:39:32;;;;;;;53.07;26.17;;;4.00;99.90;;;;;;4412106;28;658200;-68
2022/12/31 03:42:19;;;;;;;53.70;25.53;;;4.10;99.90;;;;;;4429630;28;657726;-67
2022/12/31 03:45:07;;;;;;;57.40;26.73;;;4.10;99.90;;;;;;4405914;28;658208;-67
2022/12/31 03:47:54;;;;;;;54.73;26.00;;;4.20;99.90;;;;;;4426682;28;657415;-67
2022/12/31 03:50:42;;;;;;;53.27;26.40;;;4.20;99.90;;;;;;4399580;28;657702;-67
2022/12/31 03:53:29;;;;;;;52.23;25.00;;;4.40;99.90;;;;;;4420688;28;657694;-67
2022/12/31 03:56:18;;;;;;;48.60;23.93;;;4.50;99.90;;;;;;4409354;28;657707;-66
2022/12/31 03:59:05;;;;;;;56.63;26.10;;;4.60;99.90;;;;;;4420258;28;658107;-67
2022/12/31 04:01:52;;;;;;;47.93;23.80;;;4.70;99.90;;;;;;4430474;28;658551;-66
2022/12/31 04:04:40;;;;;;;48.83;23.87;;;4.80;99.90;;;;;;4422652;28;657234;-68
2022/12/31 04:07:27;;;;;;;43.20;22.83;;;4.80;99.90;;;;;;4430886;28;658523;-66
2022/12/31 04:10:16;;;;;;;49.63;25.03;;;4.90;99.90;;;;;;4419587;28;657867;-69
2022/12/31 04:13:05;;;;;;;50.10;25.60;;;4.80;99.90;;;;;;4426553;28;657660;-67
2022/12/31 04:15:52;;;;;;;48.77;23.47;;;4.80;99.90;;;;;;4405383;28;657632;-67
2022/12/31 04:18:39;;;;;;;49.50;23.53;;;4.90;99.90;;;;;;4420064;28;657908;-68
2022/12/31 04:21:26;;;;;;;50.53;24.43;;;4.80;99.90;;;;;;4417294;28;658699;-67
2022/12/31 04:24:14;;;;;;;49.87;23.93;;;4.70;99.90;;;;;;4445382;28;657776;-67
2022/12/31 04:27:01;;;;;;;53.07;24.17;;;4.70;99.90;;;;;;4418325;28;657528;-67
2022/12/31 04:29:50;;;;;;;49.93;24.30;;;4.70;99.90;;;;;;4440405;28;658079;-67
2022/12/31 04:32:37;;;;;;;53.87;25.03;;;4.70;99.90;;;;;;4420114;28;658116;-67
2022/12/31 04:35:24;;;;;;;55.20;25.97;;;4.60;99.90;;;;;;4446650;28;657510;-66
2022/12/31 04:38:11;;;;;;;50.03;23.57;;;4.70;99.90;;;;;;4425665;28;658572;-67
2022/12/31 04:41:17;;;;;;;49.30;25.23;;;4.60;99.90;;;;;;4441084;28;658111;-67
2022/12/31 04:44:04;;;;;;;53.03;26.43;;;4.60;99.90;;;;;;4418247;28;658044;-66
2022/12/31 04:46:53;;;;;;;54.50;27.47;;;4.70;99.90;;;;;;4421021;28;658297;-67
2022/12/31 04:49:40;;;;;;;58.17;25.17;;;4.80;99.90;;;;;;4428915;28;657873;-68
2022/12/31 04:52:27;;;;;;;51.90;26.33;;;4.90;99.90;;;;;;4446509;28;659194;-67
2022/12/31 04:55:15;;;;;;;56.77;27.73;;;5.00;99.90;;;;;;4441691;28;657970;-68
2022/12/31 04:58:03;;;;;;;53.23;27.27;;;5.10;99.90;;;;;;4442062;28;659090;-67
2022/12/31 05:00:53;;;;;;;49.57;26.70;;;5.20;99.90;;;;;;4423521;28;658068;-69
2022/12/31 05:03:42;;;;;;;52.60;27.92;;;5.30;99.90;;;;;;4431727;28;657882;-69
2022/12/31 05:06:29;;;;;;;51.80;26.13;;;5.30;99.90;;;;;;4441348;28;658193;-69
2022/12/31 05:09:16;;;;;;;54.10;26.33;;;5.40;99.90;;;;;;4425458;28;657703;-69
2022/12/31 05:12:04;;;;;;;50.83;26.50;;;5.40;99.90;;;;;;4441077;28;658513;-67
2022/12/31 05:14:51;;;;;;;52.10;27.70;;;5.50;99.90;;;;;;4421600;28;657757;-67
2022/12/31 05:17:38;;;;;;;52.23;26.20;;;5.60;99.90;;;;;;4442424;28;657861;-67
2022/12/31 05:20:27;;;;;;;54.30;27.88;;;5.60;99.90;;;;;;4422375;28;657812;-68
2022/12/31 05:23:14;;;;;;;55.43;26.57;;;5.60;99.90;;;;;;4436487;28;657065;-67
2022/12/31 05:26:01;;;;;;;53.43;26.37;;;5.70;99.90;;;;;;4424246;28;657405;-67
2022/12/31 05:28:48;;;;;;;50.83;25.37;;;5.60;99.90;;;;;;4444936;28;657435;-68
2022/12/31 05:31:36;;;;;;;49.27;24.73;;;5.70;99.90;;;;;;4423233;28;658966;-68
2022/12/31 05:34:23;;;;;;;54.33;25.27;;;5.70;99.90;;;;;;4444725;28;657762;-67
2022/12/31 05:37:12;;;;;;;50.53;24.37;;;5.80;99.90;;;;;;4417133;28;657938;-69
2022/12/31 05:39:59;;;;;;;46.77;24.10;;;5.90;99.90;;;;;;4441525;28;658341;-67
2022/12/31 05:42:46;;;;;;;46.40;24.07;;;5.90;99.90;;;;;;4423938;28;658681;-67
2022/12/31 05:45:33;;;;;;;44.63;23.73;;;6.00;99.90;;;;;;4447320;28;658156;-67
2022/12/31 05:48:20;;;;;;;43.23;23.90;;;6.10;99.90;;;;;;4296133;28;657513;-69
2022/12/31 05:51:08;;;;;;;43.30;22.83;;;6.10;99.90;;;;;;4307916;28;657716;-69
2022/12/31 05:53:57;;;;;;;43.15;22.15;;;6.20;99.90;;;;;;4293424;28;657528;-69
2022/12/31 05:56:44;;;;;;;43.33;21.87;;;6.20;99.90;;;;;;4399853;28;657103;-67
2022/12/31 05:59:31;;;;;;;41.40;21.37;;;6.20;99.90;;;;;;4422906;28;657492;-67
2022/12/31 06:02:18;;;;;;;39.03;21.17;;;6.20;99.90;;;;;;4440037;28;657919;-67
2022/12/31 06:05:06;;;;;;;46.33;22.37;;;6.20;99.90;;;;;;4423690;28;658078;-67
2022/12/31 06:07:53;;;;;;;42.60;21.13;;;6.30;99.90;;;;;;4446184;28;658794;-67
2022/12/31 06:10:42;;;;;;;40.40;21.73;;;6.30;99.90;;;;;;4428330;28;658240;-67
2022/12/31 06:13:29;;;;;;;40.23;20.07;;;6.40;99.90;;;;;;4447220;28;657303;-68
2022/12/31 06:16:16;;;;;;;37.43;19.00;;;6.40;99.90;;;;;;4424637;28;657650;-67
2022/12/31 06:19:04;;;;;;;35.17;20.00;;;6.50;99.90;;;;;;4444602;28;657899;-67
2022/12/31 06:21:51;;;;;;;40.90;19.97;;;6.50;99.90;;;;;;4428146;28;657615;-67
2022/12/31 06:24:38;;;;;;;33.70;18.73;;;6.60;99.90;;;;;;4446729;28;657826;-67
2022/12/31 06:27:27;;;;;;;34.90;18.47;;;6.60;99.90;;;;;;4425912;28;657389;-68
2022/12/31 06:30:14;;;;;;;38.93;20.17;;;6.60;99.90;;;;;;4446179;28;658198;-67
2022/12/31 06:33:01;;;;;;;39.33;18.93;;;6.60;99.90;;;;;;4423767;28;658344;-68
2022/12/31 06:35:48;;;;;;;38.92;19.55;;;6.60;99.90;;;;;;4454914;28;658608;-67
2022/12/31 06:38:37;;;;;;;40.30;19.73;;;6.60;99.90;;;;;;4428407;28;658158;-67
2022/12/31 06:41:24;;;;;;;32.90;16.77;;;6.70;99.90;;;;;;4447706;28;657262;-68
2022/12/31 06:44:13;;;;;;;38.07;19.37;;;6.80;99.90;;;;;;4419817;28;658702;-69
2022/12/31 06:47:00;;;;;;;37.67;18.60;;;6.80;99.90;;;;;;4429574;28;657901;-68
2022/12/31 06:49:48;;;;;;;32.87;17.53;;;6.80;99.90;;;;;;4451035;28;657375;-68
2022/12/31 06:52:35;;;;;;;34.63;17.95;;;6.80;99.90;;;;;;4425493;28;657317;-68
2022/12/31 06:55:23;;;;;;;33.40;18.40;;;6.90;99.90;;;;;;4451656;28;659294;-66
2022/12/31 06:58:11;;;;;;;32.08;18.05;;;6.90;99.90;;;;;;4420980;28;657698;-68
2022/12/31 07:01:02;;;;;;;32.45;17.80;;;7.00;99.90;;;;;;4443444;28;658522;-66
2022/12/31 07:03:52;;;;;;;31.97;17.03;;;7.10;99.90;;;;;;4444662;28;657749;-69
2022/12/31 07:06:42;;;;;;;32.30;18.87;;;7.00;99.90;;;;;;4448630;28;659060;-67
2022/12/31 07:09:33;;;;;;;34.35;19.30;;;7.00;99.90;;;;;;4426311;28;657827;-70
2022/12/31 07:12:28;;;;;;;33.07;17.67;;;7.10;99.90;;;;;;4424059;28;657644;-70
2022/12/31 07:15:19;;;;;;;34.10;18.47;;;7.20;99.90;;;;;;4403267;28;658751;-70
2022/12/31 07:18:13;;;;;;;35.73;18.20;;;7.20;99.90;;;;;;4430113;28;658381;-70
2022/12/31 07:21:01;;;;;;;34.77;17.93;;;7.30;99.90;;;;;;4402247;28;657409;-70
2022/12/31 07:23:49;;;;;;;32.88;17.92;;;7.30;99.90;;;;;;4447421;28;658380;-70
2022/12/31 07:26:46;;;;;;;31.73;15.87;;;7.40;99.90;;;;;;4416838;28;657724;-70
2022/12/31 07:29:44;;;;;;;30.10;15.00;;;7.40;99.90;;;;;;4421020;28;658792;-70
2022/12/31 07:32:52;;;;;;;27.10;14.57;;;7.50;99.90;;;;;;4396926;28;657746;-70
2022/12/31 07:35:47;;;;;;;28.57;15.60;;;7.60;99.90;;;;;;4443263;28;658116;-70
2022/12/31 07:38:37;;;;;;;27.20;14.37;;;7.70;99.90;;;;;;4412113;28;657944;-71
2022/12/31 07:41:36;;;;;;;24.50;14.10;;;7.80;99.90;;;;;;4411888;28;657661;-70
2022/12/31 07:44:38;;;;;;;23.33;12.83;;;7.90;99.90;;;;;;4412724;28;658671;-72
2022/12/31 07:47:27;;;;;;;20.83;11.53;;;7.90;99.90;;;;;;4396780;28;657953;-71
2022/12/31 07:50:15;;;;;;;18.33;11.07;;;8.10;99.90;;;;;;4443224;28;658017;-71
2022/12/31 07:53:04;;;;;;;21.17;10.97;;;8.10;99.90;;;;;;4422736;28;658906;-71
2022/12/31 07:55:53;;;;;;;17.13;10.73;;;8.10;99.90;;;;;;4427309;28;657648;-71
2022/12/31 07:58:51;;;;;;;18.40;10.40;;;8.20;99.90;;;;;;4426280;28;658090;-71
2022/12/31 08:01:41;;;;;;;19.67;11.40;;;8.30;99.90;;;;;;4417966;28;658650;-71
2022/12/31 08:04:31;;;;;;;17.77;10.23;;;8.40;99.90;;;;;;4424889;28;657766;-71
2022/12/31 08:07:20;;;;;;;20.43;11.10;;;8.40;99.90;;;;;;4423595;28;658777;-72
2022/12/31 08:10:13;;;;;;;17.73;10.23;;;8.50;99.90;;;;;;4421959;28;659169;-71
2022/12/31 08:13:02;;;;;;;18.90;11.00;;;8.60;99.90;;;;;;4407159;28;657567;-71
2022/12/31 08:15:49;;;;;;;19.87;11.90;;;8.60;99.90;;;;;;4450310;28;657615;-71
2022/12/31 08:18:37;;;;;;;20.77;12.97;;;8.70;99.90;;;;;;4424983;28;657939;-71
2022/12/31 08:21:32;;;;;;;21.27;12.13;;;8.70;99.90;;;;;;4447845;28;656933;-71
2022/12/31 08:24:21;;;;;;;20.10;11.83;;;8.80;99.90;;;;;;4420987;28;658015;-71
2022/12/31 08:27:15;;;;;;;20.00;12.67;;;8.90;99.90;;;;;;4418193;28;658241;-71
2022/12/31 08:30:05;;;;;;;18.33;11.25;;;8.80;99.90;;;;;;4398989;28;657636;-71
2022/12/31 08:32:58;;;;;;;19.53;11.43;;;8.80;99.90;;;;;;4426863;28;658141;-71
2022/12/31 08:35:52;;;;;;;21.43;12.43;;;8.90;99.90;;;;;;4440497;28;657248;-71
2022/12/31 08:38:43;;;;;;;19.80;11.73;;;9.00;99.90;;;;;;4428440;28;657700;-71
2022/12/31 08:41:33;;;;;;;20.93;11.30;;;9.10;99.90;;;;;;4405784;28;657485;-72
2022/12/31 08:44:25;;;;;;;18.90;11.30;;;9.20;99.90;;;;;;4428300;28;657465;-71
2022/12/31 08:47:16;;;;;;;18.92;10.60;;;9.60;99.90;;;;;;4424800;28;657978;-72
2022/12/31 08:50:04;;;;;;;18.80;10.77;;;9.90;99.90;;;;;;4421700;28;658736;-72
2022/12/31 08:52:52;;;;;;;20.00;12.17;;;10.10;99.90;;;;;;4426634;28;658389;-72
2022/12/31 08:55:39;;;;;;;21.37;12.73;;;10.50;99.90;;;;;;4440958;28;658925;-71
2022/12/31 08:58:35;;;;;;;20.80;12.23;;;10.80;1.00;;;;;;4415474;28;659224;-72
2022/12/31 09:01:25;;;;;;;29.50;14.93;;;11.20;99.90;;;;;;4413351;28;658105;-71
2022/12/31 09:04:17;;;;;;;35.47;16.77;;;11.20;99.90;;;;;;4416970;28;659130;-71
2022/12/31 09:07:04;;;;;;;29.33;15.30;;;11.00;99.90;;;;;;4418008;28;658375;-72
2022/12/31 09:09:56;;;;;;;27.50;13.27;;;10.50;1.00;;;;;;4420678;28;658429;-72
2022/12/31 09:12:47;;;;;;;33.83;16.10;;;10.20;1.00;;;;;;4421379;28;658027;-72
2022/12/31 09:15:37;;;;;;;31.33;15.77;;;10.10;1.00;;;;;;4413333;28;657796;-74
2022/12/31 09:18:26;;;;;;;31.03;14.67;;;10.00;14.40;;;;;;4424686;28;657699;-73
2022/12/31 09:21:15;;;;;;;29.87;14.20;;;10.00;5.60;;;;;;4422559;28;658955;-73
2022/12/31 09:24:02;;;;;;;24.40;12.80;;;9.90;89.30;;;;;;4419949;28;658343;-73
2022/12/31 09:26:55;;;;;;;25.20;12.87;;;9.80;99.90;;;;;;4447236;28;656778;-73
2022/12/31 09:29:47;;;;;;;23.37;11.97;;;10.10;99.90;;;;;;4422889;28;658128;-73
2022/12/31 09:32:41;;;;;;;21.47;11.80;;;10.50;1.00;;;;;;4412931;28;658988;-73
2022/12/31 09:35:35;;;;;;;21.37;11.30;;;11.10;99.90;;;;;;4422859;28;657661;-72
2022/12/31 09:38:26;;;;;;;18.00;10.80;;;11.70;99.90;;;;;;4394291;28;659290;-73
2022/12/31 09:41:15;;;;;;;18.93;10.93;;;11.70;99.90;;;;;;4415629;28;659800;-73
2022/12/31 09:44:41;;;;;;;19.03;10.63;;;11.60;99.90;;;;;;4420173;28;659687;-72
2022/12/31 09:48:16;;;;;;;20.50;10.60;;;11.50;99.90;;;;;;4416805;28;658908;-72
2022/12/31 09:51:09;;;;;;;17.23;10.27;;;11.30;99.90;;;;;;4421629;28;659360;-73
2022/12/31 09:54:09;;;;;;;18.13;10.47;;;11.40;99.90;;;;;;4421331;28;658327;-73
2022/12/31 09:57:09;;;;;;;20.63;10.60;;;11.40;99.90;;;;;;4426937;28;658697;-72
2022/12/31 09:59:59;;;;;;;17.53;9.93;;;11.80;99.90;;;;;;4419040;28;659149;-71
2022/12/31 10:02:57;;;;;;;17.33;10.17;;;12.10;99.90;;;;;;4423981;28;658902;-71
2022/12/31 10:05:50;;;;;;;19.43;10.17;;;12.10;99.90;;;;;;4417349;28;659035;-71
2022/12/31 10:08:50;;;;;;;19.03;10.30;;;12.10;99.90;;;;;;4393354;28;659239;-71
2022/12/31 10:11:49;;;;;;;21.90;10.40;;;12.10;99.90;;;;;;4400475;28;659421;-71
2022/12/31 10:14:46;;;;;;;14.83;7.57;;;11.90;99.90;;;;;;4425756;28;658773;-71
2022/12/31 10:17:46;;;;;;;15.53;6.97;;;11.70;99.90;;;;;;4417215;28;657698;-72
2022/12/31 10:20:42;;;;;;;15.70;7.90;;;11.50;99.90;;;;;;4421461;28;658276;-71
2022/12/31 10:23:59;;;;;;;11.13;5.67;;;11.70;99.90;;;;;;4416201;28;657855;-71
2022/12/31 10:26:56;;;;;;;13.00;7.03;;;11.70;99.90;;;;;;4425016;28;657575;-71
2022/12/31 10:29:46;;;;;;;11.87;6.20;;;12.00;99.90;;;;;;4421928;28;658132;-71
2022/12/31 10:32:38;;;;;;;11.57;6.20;;;11.80;99.90;;;;;;4426197;28;657325;-71
2022/12/31 10:35:29;;;;;;;8.80;4.87;;;11.80;99.90;;;;;;4398372;28;658156;-70
2022/12/31 10:38:23;;;;;;;11.10;5.80;;;11.90;99.90;;;;;;4423307;28;656442;-70
2022/12/31 10:41:52;;;;;;;9.57;5.40;;;11.90;99.90;;;;;;4426483;28;658122;-70
2022/12/31 10:44:49;;;;;;;8.65;4.70;;;12.10;99.90;;;;;;4418150;28;657443;-69
2022/12/31 10:47:58;;;;;;;8.37;4.20;;;12.60;99.90;;;;;;4428616;28;657114;-70
2022/12/31 10:51:18;;;;;;;6.90;3.80;;;12.50;99.90;;;;;;4401949;28;657374;-69
2022/12/31 10:54:24;;;;;;;5.53;3.47;;;11.90;99.90;;;;;;4410821;28;657243;-70
2022/12/31 10:57:36;;;;;;;6.73;3.57;;;12.00;99.90;;;;;;4399362;28;656946;-70
2022/12/31 11:00:23;;;;;;;5.90;3.77;;;12.00;99.90;;;;;;4427666;28;657152;-70
2022/12/31 11:03:37;;;;;;;6.60;3.47;;;11.80;99.90;;;;;;4426056;28;656687;-70
2022/12/31 11:06:56;;;;;;;7.30;3.40;;;11.70;1.00;;;;;;4424810;28;656676;-69
2022/12/31 11:10:31;;;;;;;6.37;3.50;;;11.70;1.00;;;;;;4399675;28;656032;-70
2022/12/31 11:13:48;;;;;;;6.03;3.33;;;11.70;1.00;;;;;;4362696;28;656090;-71
2022/12/31 11:16:57;;;;;;;5.53;2.97;;;11.70;1.00;;;;;;4419511;28;655388;-72
2022/12/31 11:19:52;;;;;;;6.97;3.60;;;11.60;1.00;;;;;;4420542;28;655217;-72
2022/12/31 11:22:52;;;;;;;6.03;3.27;;;11.60;1.00;;;;;;4416010;28;656177;-72
2022/12/31 11:25:47;;;;;;;6.30;3.23;;;11.60;1.00;;;;;;4416713;28;656304;-73
2022/12/31 11:28:42;;;;;;;6.23;3.47;;;11.70;1.00;;;;;;4437294;28;655805;-73
2022/12/31 11:31:38;;;;;;;6.73;3.43;;;11.70;1.00;;;;;;4416650;28;655327;-73
2022/12/31 11:34:43;;;;;;;7.00;3.53;;;11.70;1.00;;;;;;4392717;28;656319;-72
2022/12/31 11:37:36;;;;;;;5.17;3.13;;;11.80;1.00;;;;;;4407609;28;656451;-72
2022/12/31 11:40:40;;;;;;;7.23;3.30;;;11.90;1.00;;;;;;4423023;28;656029;-73
2022/12/31 11:43:33;;;;;;;7.13;4.20;;;12.00;1.00;;;;;;4425804;28;655487;-72
2022/12/31 11:46:53;;;;;;;8.67;4.20;;;12.00;1.00;;;;;;4403077;28;656066;-72
2022/12/31 11:49:52;;;;;;;7.97;4.13;;;12.10;1.00;;;;;;4346907;28;656419;-73
2022/12/31 11:52:51;;;;;;;9.00;4.40;;;12.20;99.90;;;;;;4285540;28;655402;-72
2022/12/31 11:55:47;;;;;;;7.53;4.20;;;12.20;99.90;;;;;;4285276;28;656523;-73
2022/12/31 11:58:34;;;;;;;9.93;4.83;;;12.40;99.90;;;;;;4349978;28;656920;-72
2022/12/31 12:01:23;;;;;;;7.53;3.87;;;12.30;99.90;;;;;;4422404;28;657244;-71
2022/12/31 12:04:11;;;;;;;7.30;3.97;;;12.20;99.90;;;;;;4424403;28;656399;-72
2022/12/31 12:07:00;;;;;;;6.80;3.67;;;12.60;99.90;;;;;;4447028;28;657091;-71
2022/12/31 12:09:47;;;;;;;6.60;3.50;;;12.90;99.90;;;;;;4420994;28;657393;-73
2022/12/31 12:12:40;;;;;;;8.33;3.50;;;13.40;99.90;;;;;;4430630;28;656573;-71
2022/12/31 12:15:28;;;;;;;8.73;3.97;;;13.40;99.90;;;;;;4386065;28;656963;-71
2022/12/31 12:18:26;;;;;;;5.47;2.73;;;13.40;99.90;;;;;;4415653;28;657207;-71
2022/12/31 12:21:14;;;;;;;6.83;3.60;;;13.70;99.90;;;;;;4415977;28;656864;-71
2022/12/31 12:24:04;;;;;;;7.40;3.40;;;13.90;99.90;;;;;;4421534;28;656876;-71
2022/12/31 12:26:51;;;;;;;7.87;3.77;;;13.70;99.90;;;;;;4423700;28;656121;-71
2022/12/31 12:29:40;;;;;;;5.37;3.00;;;13.80;99.90;;;;;;4432342;28;656912;-71
2022/12/31 12:32:27;;;;;;;5.57;2.90;;;13.90;99.90;;;;;;4445434;28;656278;-71
2022/12/31 12:35:15;;;;;;;5.23;2.87;;;13.80;99.90;;;;;;4438062;28;656964;-71
2022/12/31 12:38:04;;;;;;;6.23;2.93;;;13.70;99.90;;;;;;4440517;28;657201;-71
2022/12/31 12:40:57;;;;;;;5.57;2.83;;;13.50;99.90;;;;;;4417685;28;657493;-71
2022/12/31 12:43:44;;;;;;;5.73;2.87;;;13.10;99.90;;;;;;4416638;28;658969;-71
2022/12/31 12:46:33;;;;;;;8.70;3.17;;;12.80;99.90;;;;;;4425203;28;656768;-72
2022/12/31 12:49:22;;;;;;;5.63;3.27;;;12.60;99.90;;;;;;4417547;28;657034;-72
2022/12/31 12:52:26;;;;;;;6.53;2.83;;;12.50;99.90;;;;;;4439479;28;656821;-71
2022/12/31 12:55:18;;;;;;;6.17;3.20;;;12.50;99.90;;;;;;4425730;28;656785;-71
2022/12/31 12:58:10;;;;;;;7.53;3.50;;;12.40;99.90;;;;;;4399013;28;657867;-72
2022/12/31 13:01:01;;;;;;;6.33;3.33;;;12.30;99.90;;;;;;4418292;28;658246;-71
2022/12/31 13:04:12;;;;;;;8.40;3.17;;;12.30;99.90;;;;;;4415953;28;656514;-72
2022/12/31 13:07:09;;;;;;;5.57;3.00;;;12.30;99.90;;;;;;4415975;28;656892;-72
2022/12/31 13:10:05;;;;;;;6.10;3.17;;;12.20;99.90;;;;;;4422434;28;656651;-72
2022/12/31 13:12:55;;;;;;;4.90;2.70;;;12.30;99.90;;;;;;4414723;28;656922;-71
2022/12/31 13:15:46;;;;;;;6.40;2.93;;;12.40;99.90;;;;;;4421507;28;657227;-72
2022/12/31 13:18:42;;;;;;;5.10;2.67;;;12.30;99.90;;;;;;4418319;28;657617;-72
2022/12/31 13:21:38;;;;;;;5.73;2.97;;;12.30;99.90;;;;;;4415948;28;656865;-72
2022/12/31 13:24:33;;;;;;;7.13;3.13;;;12.40;99.90;;;;;;4400304;28;656655;-71
2022/12/31 13:27:22;;;;;;;5.27;3.10;;;12.30;99.90;;;;;;4411643;28;656345;-73
2022/12/31 13:30:14;;;;;;;7.90;4.03;;;12.40;99.90;;;;;;4440460;28;656784;-72
2022/12/31 13:33:05;;;;;;;5.97;3.60;;;12.30;99.90;;;;;;4421838;28;656458;-73
2022/12/31 13:35:53;;;;;;;7.57;3.90;;;12.30;99.90;;;;;;4419135;28;657812;-72
2022/12/31 13:38:42;;;;;;;9.13;4.00;;;12.30;99.90;;;;;;4424233;28;656658;-73
2022/12/31 13:41:30;;;;;;;8.50;4.43;;;12.20;99.90;;;;;;4444612;28;656380;-72
2022/12/31 13:44:21;;;;;;;8.53;4.10;;;12.20;99.90;;;;;;4422205;28;657291;-72
2022/12/31 13:47:12;;;;;;;9.10;4.10;;;12.20;99.90;;;;;;4418310;28;657941;-74
2022/12/31 13:50:02;;;;;;;9.57;4.60;;;12.20;99.90;;;;;;4420981;28;656244;-73
2022/12/31 13:52:53;;;;;;;9.20;4.73;;;12.20;99.90;;;;;;4417996;28;656255;-73
2022/12/31 13:55:41;;;;;;;12.50;5.37;;;12.20;99.90;;;;;;4402029;28;657482;-72
2022/12/31 13:58:32;;;;;;;10.47;5.47;;;12.20;99.90;;;;;;4442065;28;657791;-73
2022/12/31 14:01:20;;;;;;;9.80;5.80;;;12.20;99.90;;;;;;4425232;28;657362;-72
2022/12/31 14:04:10;;;;;;;14.77;6.10;;;12.20;99.90;;;;;;4422753;28;657581;-72
2022/12/31 14:07:00;;;;;;;11.50;5.50;;;12.40;99.90;;;;;;4420846;28;658698;-72
2022/12/31 14:09:47;;;;;;;10.73;5.40;;;12.50;99.90;;;;;;4426633;28;658186;-72
2022/12/31 14:12:37;;;;;;;14.33;5.33;;;12.50;99.90;;;;;;4442686;28;658396;-72
2022/12/31 14:15:26;;;;;;;18.17;6.00;;;12.50;99.90;;;;;;4422418;28;658088;-72
2022/12/31 14:18:14;;;;;;;12.90;6.83;;;12.40;99.90;;;;;;4421923;28;657988;-72
2022/12/31 14:21:03;;;;;;;17.37;7.53;;;12.40;99.90;;;;;;4419356;28;658972;-72
2022/12/31 14:23:55;;;;;;;13.03;6.40;;;12.40;99.90;;;;;;4423615;28;657485;-72
2022/12/31 14:26:44;;;;;;;12.07;6.63;;;12.20;99.90;;;;;;4424076;28;658737;-71
2022/12/31 14:29:33;;;;;;;14.27;6.17;;;12.20;99.90;;;;;;4419087;28;657898;-71
2022/12/31 14:32:59;;;;;;;14.47;6.07;;;12.10;99.90;;;;;;4425523;28;657544;-73
2022/12/31 14:36:00;;;;;;;15.97;7.10;;;12.00;99.90;;;;;;4420274;28;657446;-72
2022/12/31 14:38:55;;;;;;;20.37;9.67;;;11.90;99.90;;;;;;4424215;28;658109;-71
2022/12/31 14:41:45;;;;;;;18.47;8.63;;;12.00;99.90;;;;;;4399962;28;658130;-72